sensor_id;sensor_type;location;lat;lon;timestamp;pressure;altitude;pressure_sealevel;temperature;humidity
9261;BME280;4667;42.726;23.252;2022-12-31T00:00:28;96248.94;;;7.25;nan
9261;BME280;4667;42.726;23.252;2022-12-31T00:02:55;96238.38;;;7.32;nan
9261;BME280;4667;42.726;23.252;2022-12-31T00:05:22;96226.84;;;7.20;nan
9261;BME280;4667;42.726;23.252;2022-12-31T00:07:49;96230.81;;;7.50;nan
9261;BME280;4667;42.726;23.252;2022-12-31T00:10:17;96230.94;;;7.42;nan
9261;BME280;4667;42.726;23.252;2022-12-31T00:12:44;96226.19;;;7.51;nan
9261;BME280;4667;42.726;23.252;2022-12-31T00:15:11;96227.28;;;7.62;nan
9261;BME280;4667;42.726;23.252;2022-12-31T00:17:38;96227.22;;;7.74;nan
9261;BME280;4667;42.726;23.252;2022-12-31T00:20:06;96230.78;;;7.78;nan
9261;BME280;4667;42.726;23.252;2022-12-31T00:22:33;96226.97;;;7.79;nan
9261;BME280;4667;42.726;23.252;2022-12-31T00:24:59;96236.53;;;7.76;nan
9261;BME280;4667;42.726;23.252;2022-12-31T00:27:30;96243.84;;;7.76;nan
9261;BME280;4667;42.726;23.252;2022-12-31T00:29:57;96250.56;;;7.82;nan
9261;BME280;4667;42.726;23.252;2022-12-31T00:32:24;96254.53;;;7.72;nan
9261;BME280;4667;42.726;23.252;2022-12-31T00:34:50;96255.06;;;7.50;nan
9261;BME280;4667;42.726;23.252;2022-12-31T00:37:17;96257.44;;;7.39;nan
9261;BME280;4667;42.726;23.252;2022-12-31T00:39:44;96266.00;;;7.29;nan
9261;BME280;4667;42.726;23.252;2022-12-31T00:42:11;96260.75;;;7.21;nan
9261;BME280;4667;42.726;23.252;2022-12-31T00:44:39;96261.72;;;7.28;nan
9261;BME280;4667;42.726;23.252;2022-12-31T00:47:05;96262.28;;;7.22;nan
9261;BME280;4667;42.726;23.252;2022-12-31T00:49:32;96274.56;;;7.19;nan
9261;BME280;4667;42.726;23.252;2022-12-31T00:51:59;96278.59;;;7.13;nan
9261;BME280;4667;42.726;23.252;2022-12-31T00:54:26;96286.22;;;7.11;nan
9261;BME280;4667;42.726;23.252;2022-12-31T00:56:52;96286.22;;;6.99;nan
9261;BME280;4667;42.726;23.252;2022-12-31T00:59:19;96280.19;;;6.90;nan
9261;BME280;4667;42.726;23.252;2022-12-31T01:01:47;96269.63;;;6.97;nan
9261;BME280;4667;42.726;23.252;2022-12-31T01:04:17;96282.66;;;6.95;nan
9261;BME280;4667;42.726;23.252;2022-12-31T01:06:45;96288.38;;;6.93;nan
9261;BME280;4667;42.726;23.252;2022-12-31T01:09:16;96281.41;;;6.80;nan
9261;BME280;4667;42.726;23.252;2022-12-31T01:11:43;96288.59;;;6.76;nan
9261;BME280;4667;42.726;23.252;2022-12-31T01:14:12;96293.19;;;6.76;nan
9261;BME280;4667;42.726;23.252;2022-12-31T01:16:40;96291.19;;;6.73;nan
9261;BME280;4667;42.726;23.252;2022-12-31T01:19:11;96293.41;;;6.59;nan
9261;BME280;4667;42.726;23.252;2022-12-31T01:21:39;96290.00;;;6.49;nan
9261;BME280;4667;42.726;23.252;2022-12-31T01:24:06;96293.16;;;6.51;nan
9261;BME280;4667;42.726;23.252;2022-12-31T01:26:34;96284.44;;;6.22;nan
9261;BME280;4667;42.726;23.252;2022-12-31T01:29:01;96282.00;;;6.29;nan
9261;BME280;4667;42.726;23.252;2022-12-31T01:31:28;96293.66;;;6.33;nan
9261;BME280;4667;42.726;23.252;2022-12-31T01:33:57;96296.03;;;6.34;nan
9261;BME280;4667;42.726;23.252;2022-12-31T01:36:26;96299.06;;;6.33;nan
9261;BME280;4667;42.726;23.252;2022-12-31T01:38:54;96298.00;;;6.13;nan
9261;BME280;4667;42.726;23.252;2022-12-31T01:41:23;96294.50;;;6.00;nan
9261;BME280;4667;42.726;23.252;2022-12-31T01:43:51;96301.16;;;6.27;nan
9261;BME280;4667;42.726;23.252;2022-12-31T01:46:26;96305.69;;;6.35;nan
9261;BME280;4667;42.726;23.252;2022-12-31T01:48:56;96299.31;;;6.40;nan
9261;BME280;4667;42.726;23.252;2022-12-31T01:51:28;96302.13;;;6.43;nan
9261;BME280;4667;42.726;23.252;2022-12-31T01:53:57;96307.03;;;6.41;nan
9261;BME280;4667;42.726;23.252;2022-12-31T01:56:26;96306.25;;;6.41;nan
9261;BME280;4667;42.726;23.252;2022-12-31T01:58:54;96312.91;;;6.43;nan
9261;BME280;4667;42.726;23.252;2022-12-31T02:01:25;96314.69;;;6.51;nan
9261;BME280;4667;42.726;23.252;2022-12-31T02:03:52;96319.75;;;6.53;nan
9261;BME280;4667;42.726;23.252;2022-12-31T02:06:22;96321.66;;;6.52;nan
9261;BME280;4667;42.726;23.252;2022-12-31T02:08:52;96321.41;;;6.45;nan
9261;BME280;4667;42.726;23.252;2022-12-31T02:11:25;96315.72;;;6.26;nan
9261;BME280;4667;42.726;23.252;2022-12-31T02:13:54;96315.69;;;6.14;nan
9261;BME280;4667;42.726;23.252;2022-12-31T02:16:29;96304.63;;;6.15;nan
9261;BME280;4667;42.726;23.252;2022-12-31T02:18:59;96311.91;;;6.15;nan
9261;BME280;4667;42.726;23.252;2022-12-31T02:21:49;96317.06;;;6.20;nan
9261;BME280;4667;42.726;23.252;2022-12-31T02:24:42;96319.00;;;6.20;nan
9261;BME280;4667;42.726;23.252;2022-12-31T02:27:22;96318.44;;;6.26;nan
9261;BME280;4667;42.726;23.252;2022-12-31T02:30:10;96326.75;;;6.33;nan
9261;BME280;4667;42.726;23.252;2022-12-31T02:32:46;96325.00;;;6.37;nan
9261;BME280;4667;42.726;23.252;2022-12-31T02:35:20;96325.00;;;6.37;nan
9261;BME280;4667;42.726;23.252;2022-12-31T02:37:51;96328.88;;;6.28;nan
9261;BME280;4667;42.726;23.252;2022-12-31T02:40:21;96337.94;;;6.23;nan
9261;BME280;4667;42.726;23.252;2022-12-31T02:42:48;96335.47;;;6.18;nan
9261;BME280;4667;42.726;23.252;2022-12-31T02:45:21;96326.91;;;6.16;nan
9261;BME280;4667;42.726;23.252;2022-12-31T02:47:56;96331.41;;;6.12;nan
9261;BME280;4667;42.726;23.252;2022-12-31T02:50:34;96334.09;;;6.12;nan
9261;BME280;4667;42.726;23.252;2022-12-31T02:53:15;96333.78;;;5.93;nan
9261;BME280;4667;42.726;23.252;2022-12-31T02:55:48;96338.69;;;5.91;nan
9261;BME280;4667;42.726;23.252;2022-12-31T02:58:21;96337.56;;;5.92;nan
9261;BME280;4667;42.726;23.252;2022-12-31T03:01:18;96334.78;;;5.80;nan
9261;BME280;4667;42.726;23.252;2022-12-31T03:04:03;96325.34;;;5.73;nan
9261;BME280;4667;42.726;23.252;2022-12-31T03:06:45;96326.81;;;5.71;nan
9261;BME280;4667;42.726;23.252;2022-12-31T03:09:12;96323.97;;;5.67;nan
9261;BME280;4667;42.726;23.252;2022-12-31T03:11:38;96321.75;;;5.69;nan
9261;BME280;4667;42.726;23.252;2022-12-31T03:14:23;96321.38;;;5.59;nan
9261;BME280;4667;42.726;23.252;2022-12-31T03:16:51;96318.28;;;5.69;nan
9261;BME280;4667;42.726;23.252;2022-12-31T03:19:17;96317.44;;;5.56;nan
9261;BME280;4667;42.726;23.252;2022-12-31T03:22:01;96311.94;;;5.53;nan
9261;BME280;4667;42.726;23.252;2022-12-31T03:24:46;96317.63;;;5.51;nan
9261;BME280;4667;42.726;23.252;2022-12-31T03:27:30;96313.09;;;5.43;nan
9261;BME280;4667;42.726;23.252;2022-12-31T03:29:56;96316.38;;;5.28;nan
9261;BME280;4667;42.726;23.252;2022-12-31T03:32:25;96322.84;;;5.27;nan
9261;BME280;4667;42.726;23.252;2022-12-31T03:34:52;96318.22;;;5.07;nan
9261;BME280;4667;42.726;23.252;2022-12-31T03:37:20;96329.94;;;5.02;nan
9261;BME280;4667;42.726;23.252;2022-12-31T03:39:47;96333.78;;;4.92;nan
9261;BME280;4667;42.726;23.252;2022-12-31T03:42:13;96331.50;;;5.03;nan
9261;BME280;4667;42.726;23.252;2022-12-31T03:44:40;96332.88;;;4.80;nan
9261;BME280;4667;42.726;23.252;2022-12-31T03:47:07;96338.28;;;4.71;nan
9261;BME280;4667;42.726;23.252;2022-12-31T03:49:35;96336.13;;;4.65;nan
9261;BME280;4667;42.726;23.252;2022-12-31T03:52:02;96344.59;;;4.67;nan
9261;BME280;4667;42.726;23.252;2022-12-31T03:54:30;96348.38;;;4.74;nan
9261;BME280;4667;42.726;23.252;2022-12-31T03:56:57;96349.34;;;4.70;nan
9261;BME280;4667;42.726;23.252;2022-12-31T03:59:24;96341.81;;;4.55;nan
9261;BME280;4667;42.726;23.252;2022-12-31T04:01:51;96340.13;;;4.33;nan
9261;BME280;4667;42.726;23.252;2022-12-31T04:04:17;96344.06;;;4.44;nan
9261;BME280;4667;42.726;23.252;2022-12-31T04:06:46;96342.78;;;4.50;nan
9261;BME280;4667;42.726;23.252;2022-12-31T04:09:12;96353.31;;;4.55;nan
9261;BME280;4667;42.726;23.252;2022-12-31T04:11:39;96347.66;;;4.57;nan
9261;BME280;4667;42.726;23.252;2022-12-31T04:14:06;96356.19;;;4.50;nan
9261;BME280;4667;42.726;23.252;2022-12-31T04:16:33;96360.63;;;4.46;nan
9261;BME280;4667;42.726;23.252;2022-12-31T04:18:59;96358.75;;;4.38;nan
9261;BME280;4667;42.726;23.252;2022-12-31T04:21:26;96360.78;;;4.41;nan
9261;BME280;4667;42.726;23.252;2022-12-31T04:23:54;96355.56;;;4.36;nan
9261;BME280;4667;42.726;23.252;2022-12-31T04:26:21;96354.03;;;4.35;nan
9261;BME280;4667;42.726;23.252;2022-12-31T04:28:48;96365.19;;;4.45;nan
9261;BME280;4667;42.726;23.252;2022-12-31T04:31:14;96355.72;;;4.48;nan
9261;BME280;4667;42.726;23.252;2022-12-31T04:33:41;96364.72;;;4.52;nan
9261;BME280;4667;42.726;23.252;2022-12-31T04:36:08;96369.13;;;4.48;nan
9261;BME280;4667;42.726;23.252;2022-12-31T04:38:35;96363.44;;;4.49;nan
9261;BME280;4667;42.726;23.252;2022-12-31T04:41:04;96361.72;;;4.45;nan
9261;BME280;4667;42.726;23.252;2022-12-31T04:43:44;96365.03;;;4.50;nan
9261;BME280;4667;42.726;23.252;2022-12-31T04:46:12;96372.94;;;4.38;nan
9261;BME280;4667;42.726;23.252;2022-12-31T04:48:39;96379.53;;;4.41;nan
9261;BME280;4667;42.726;23.252;2022-12-31T04:51:06;96374.66;;;4.43;nan
9261;BME280;4667;42.726;23.252;2022-12-31T04:53:32;96383.38;;;4.31;nan
9261;BME280;4667;42.726;23.252;2022-12-31T04:55:59;96387.44;;;4.37;nan
9261;BME280;4667;42.726;23.252;2022-12-31T04:58:27;96386.66;;;4.37;nan
9261;BME280;4667;42.726;23.252;2022-12-31T05:00:54;96386.22;;;4.35;nan
9261;BME280;4667;42.726;23.252;2022-12-31T05:03:22;96388.91;;;4.35;nan
9261;BME280;4667;42.726;23.252;2022-12-31T05:05:50;96384.50;;;4.04;nan
9261;BME280;4667;42.726;23.252;2022-12-31T05:08:17;96394.72;;;4.20;nan
9261;BME280;4667;42.726;23.252;2022-12-31T05:10:46;96387.47;;;4.11;nan
9261;BME280;4667;42.726;23.252;2022-12-31T05:13:14;96399.00;;;4.03;nan
9261;BME280;4667;42.726;23.252;2022-12-31T05:15:42;96411.13;;;4.01;nan
9261;BME280;4667;42.726;23.252;2022-12-31T05:18:11;96410.81;;;4.02;nan
9261;BME280;4667;42.726;23.252;2022-12-31T05:20:38;96415.41;;;4.02;nan
9261;BME280;4667;42.726;23.252;2022-12-31T05:23:05;96413.66;;;4.06;nan
9261;BME280;4667;42.726;23.252;2022-12-31T05:25:32;96409.72;;;4.12;nan
9261;BME280;4667;42.726;23.252;2022-12-31T05:27:59;96405.16;;;4.21;nan
9261;BME280;4667;42.726;23.252;2022-12-31T05:30:26;96410.19;;;4.14;nan
9261;BME280;4667;42.726;23.252;2022-12-31T05:32:54;96423.13;;;4.03;nan
9261;BME280;4667;42.726;23.252;2022-12-31T05:35:21;96425.34;;;4.10;nan
9261;BME280;4667;42.726;23.252;2022-12-31T05:37:48;96419.50;;;4.08;nan
9261;BME280;4667;42.726;23.252;2022-12-31T05:40:15;96422.34;;;4.03;nan
9261;BME280;4667;42.726;23.252;2022-12-31T05:42:41;96425.81;;;3.86;nan
9261;BME280;4667;42.726;23.252;2022-12-31T05:45:09;96434.31;;;3.88;nan
9261;BME280;4667;42.726;23.252;2022-12-31T05:47:38;96433.81;;;3.69;nan
9261;BME280;4667;42.726;23.252;2022-12-31T05:50:07;96435.88;;;3.89;nan
9261;BME280;4667;42.726;23.252;2022-12-31T05:52:35;96439.66;;;3.88;nan
9261;BME280;4667;42.726;23.252;2022-12-31T05:55:02;96442.19;;;3.85;nan
9261;BME280;4667;42.726;23.252;2022-12-31T05:57:29;96448.34;;;3.85;nan
9261;BME280;4667;42.726;23.252;2022-12-31T05:59:56;96442.97;;;3.85;nan
9261;BME280;4667;42.726;23.252;2022-12-31T06:02:22;96453.06;;;3.80;nan
9261;BME280;4667;42.726;23.252;2022-12-31T06:04:49;96444.41;;;3.91;nan
9261;BME280;4667;42.726;23.252;2022-12-31T06:07:17;96444.25;;;3.96;nan
9261;BME280;4667;42.726;23.252;2022-12-31T06:09:44;96449.78;;;4.08;nan
9261;BME280;4667;42.726;23.252;2022-12-31T06:12:11;96451.34;;;4.18;nan
9261;BME280;4667;42.726;23.252;2022-12-31T06:14:38;96446.78;;;4.10;nan
9261;BME280;4667;42.726;23.252;2022-12-31T06:17:04;96453.06;;;4.05;nan
9261;BME280;4667;42.726;23.252;2022-12-31T06:19:31;96457.31;;;3.89;nan
9261;BME280;4667;42.726;23.252;2022-12-31T06:21:58;96465.69;;;3.96;nan
9261;BME280;4667;42.726;23.252;2022-12-31T06:24:26;96456.41;;;4.02;nan
9261;BME280;4667;42.726;23.252;2022-12-31T06:26:53;96461.31;;;4.09;nan
9261;BME280;4667;42.726;23.252;2022-12-31T06:29:20;96472.50;;;4.02;nan
9261;BME280;4667;42.726;23.252;2022-12-31T06:31:47;96472.00;;;3.92;nan
9261;BME280;4667;42.726;23.252;2022-12-31T06:34:14;96479.91;;;4.14;nan
9261;BME280;4667;42.726;23.252;2022-12-31T06:36:40;96476.28;;;4.27;nan
9261;BME280;4667;42.726;23.252;2022-12-31T06:39:07;96476.28;;;4.19;nan
9261;BME280;4667;42.726;23.252;2022-12-31T06:41:36;96480.69;;;4.49;nan
9261;BME280;4667;42.726;23.252;2022-12-31T06:44:03;96486.72;;;4.46;nan
9261;BME280;4667;42.726;23.252;2022-12-31T06:46:30;96493.13;;;4.71;nan
9261;BME280;4667;42.726;23.252;2022-12-31T06:48:56;96483.66;;;4.82;nan
9261;BME280;4667;42.726;23.252;2022-12-31T06:51:26;96478.09;;;4.96;nan
9261;BME280;4667;42.726;23.252;2022-12-31T06:53:53;96493.22;;;5.09;nan
9261;BME280;4667;42.726;23.252;2022-12-31T06:56:22;96483.84;;;5.32;nan
9261;BME280;4667;42.726;23.252;2022-12-31T06:58:52;96486.19;;;5.42;nan
9261;BME280;4667;42.726;23.252;2022-12-31T07:01:46;96496.19;;;5.62;nan
9261;BME280;4667;42.726;23.252;2022-12-31T07:07:31;96481.69;;;5.93;nan
9261;BME280;4667;42.726;23.252;2022-12-31T07:10:06;96491.84;;;6.08;nan
9261;BME280;4667;42.726;23.252;2022-12-31T07:13:01;96498.75;;;6.18;nan
9261;BME280;4667;42.726;23.252;2022-12-31T07:15:44;96510.41;;;6.30;nan
9261;BME280;4667;42.726;23.252;2022-12-31T07:18:24;96505.16;;;6.54;nan
9261;BME280;4667;42.726;23.252;2022-12-31T07:20:52;96509.50;;;6.80;nan
9261;BME280;4667;42.726;23.252;2022-12-31T07:23:22;96504.59;;;7.15;nan
9261;BME280;4667;42.726;23.252;2022-12-31T07:25:56;96506.19;;;7.40;nan
9261;BME280;4667;42.726;23.252;2022-12-31T07:28:36;96517.56;;;7.70;nan
9261;BME280;4667;42.726;23.252;2022-12-31T07:31:14;96517.47;;;7.91;nan
9261;BME280;4667;42.726;23.252;2022-12-31T07:33:50;96527.34;;;8.11;nan
9261;BME280;4667;42.726;23.252;2022-12-31T07:36:35;96524.44;;;8.28;nan
9261;BME280;4667;42.726;23.252;2022-12-31T07:39:10;96521.84;;;8.32;nan
9261;BME280;4667;42.726;23.252;2022-12-31T07:41:47;96518.66;;;8.30;nan
9261;BME280;4667;42.726;23.252;2022-12-31T07:44:36;96523.06;;;8.46;nan
9261;BME280;4667;42.726;23.252;2022-12-31T07:47:16;96521.28;;;8.38;nan
9261;BME280;4667;42.726;23.252;2022-12-31T07:49:45;96531.75;;;8.28;nan
9261;BME280;4667;42.726;23.252;2022-12-31T07:52:14;96529.06;;;8.40;nan
9261;BME280;4667;42.726;23.252;2022-12-31T07:54:41;96532.88;;;8.39;nan
9261;BME280;4667;42.726;23.252;2022-12-31T07:57:10;96528.13;;;8.24;nan
9261;BME280;4667;42.726;23.252;2022-12-31T07:59:47;96530.41;;;8.34;nan
9261;BME280;4667;42.726;23.252;2022-12-31T08:02:27;96531.38;;;8.41;nan
9261;BME280;4667;42.726;23.252;2022-12-31T08:05:05;96529.69;;;8.49;nan
9261;BME280;4667;42.726;23.252;2022-12-31T08:07:36;96528.72;;;8.81;nan
9261;BME280;4667;42.726;23.252;2022-12-31T08:10:09;96528.78;;;9.13;nan
9261;BME280;4667;42.726;23.252;2022-12-31T08:12:40;96519.34;;;9.34;nan
9261;BME280;4667;42.726;23.252;2022-12-31T08:15:12;96519.19;;;9.59;nan
9261;BME280;4667;42.726;23.252;2022-12-31T08:17:41;96523.91;;;9.46;nan
9261;BME280;4667;42.726;23.252;2022-12-31T08:20:12;96520.78;;;9.75;nan
9261;BME280;4667;42.726;23.252;2022-12-31T08:22:55;96517.47;;;9.82;nan
9261;BME280;4667;42.726;23.252;2022-12-31T08:25:34;96529.13;;;10.02;nan
9261;BME280;4667;42.726;23.252;2022-12-31T08:28:11;96520.84;;;10.10;nan
9261;BME280;4667;42.726;23.252;2022-12-31T08:30:49;96521.81;;;10.18;nan
9261;BME280;4667;42.726;23.252;2022-12-31T08:33:26;96522.56;;;10.34;nan
9261;BME280;4667;42.726;23.252;2022-12-31T08:36:08;96530.13;;;10.44;nan
9261;BME280;4667;42.726;23.252;2022-12-31T08:38:41;96523.13;;;10.78;nan
9261;BME280;4667;42.726;23.252;2022-12-31T08:41:15;96533.31;;;10.85;nan
9261;BME280;4667;42.726;23.252;2022-12-31T08:43:49;96538.09;;;10.72;nan
9261;BME280;4667;42.726;23.252;2022-12-31T08:46:24;96530.25;;;10.86;nan
9261;BME280;4667;42.726;23.252;2022-12-31T08:48:53;96520.41;;;10.97;nan
9261;BME280;4667;42.726;23.252;2022-12-31T08:51:22;96520.03;;;10.80;nan
9261;BME280;4667;42.726;23.252;2022-12-31T08:53:49;96523.19;;;10.82;nan
9261;BME280;4667;42.726;23.252;2022-12-31T08:56:26;96512.56;;;11.12;nan
9261;BME280;4667;42.726;23.252;2022-12-31T08:59:03;96509.56;;;11.39;nan
9261;BME280;4667;42.726;23.252;2022-12-31T09:01:40;96514.91;;;11.55;nan
9261;BME280;4667;42.726;23.252;2022-12-31T09:04:19;96515.13;;;11.04;nan
9261;BME280;4667;42.726;23.252;2022-12-31T09:06:51;96509.00;;;11.08;nan
9261;BME280;4667;42.726;23.252;2022-12-31T09:09:29;96502.53;;;11.58;nan
9261;BME280;4667;42.726;23.252;2022-12-31T09:12:05;96509.72;;;11.92;nan
9261;BME280;4667;42.726;23.252;2022-12-31T09:14:44;96511.72;;;12.21;nan
9261;BME280;4667;42.726;23.252;2022-12-31T09:17:30;96506.78;;;12.27;nan
9261;BME280;4667;42.726;23.252;2022-12-31T09:20:15;96505.13;;;12.19;nan
9261;BME280;4667;42.726;23.252;2022-12-31T09:22:43;96496.53;;;12.73;nan
9261;BME280;4667;42.726;23.252;2022-12-31T09:25:14;96494.91;;;12.98;nan
9261;BME280;4667;42.726;23.252;2022-12-31T09:27:46;96499.28;;;13.40;nan
9261;BME280;4667;42.726;23.252;2022-12-31T09:30:17;96487.88;;;13.27;nan
9261;BME280;4667;42.726;23.252;2022-12-31T09:32:50;96489.91;;;13.34;nan
9261;BME280;4667;42.726;23.252;2022-12-31T09:35:34;96475.56;;;13.84;nan
9261;BME280;4667;42.726;23.252;2022-12-31T09:38:10;96473.44;;;14.11;nan
9261;BME280;4667;42.726;23.252;2022-12-31T09:44:14;96456.97;;;13.94;nan
9261;BME280;4667;42.726;23.252;2022-12-31T09:50:14;96443.03;;;14.06;nan
9261;BME280;4667;42.726;23.252;2022-12-31T09:53:00;96446.31;;;14.32;nan
9261;BME280;4667;42.726;23.252;2022-12-31T09:55:35;96445.34;;;14.73;nan
9261;BME280;4667;42.726;23.252;2022-12-31T09:58:16;96443.41;;;14.73;nan
9261;BME280;4667;42.726;23.252;2022-12-31T10:00:51;96450.16;;;15.04;nan
9261;BME280;4667;42.726;23.252;2022-12-31T10:03:28;96435.34;;;15.05;nan
9261;BME280;4667;42.726;23.252;2022-12-31T10:06:13;96435.06;;;15.81;nan
9261;BME280;4667;42.726;23.252;2022-12-31T10:08:55;96440.16;;;15.86;nan
9261;BME280;4667;42.726;23.252;2022-12-31T10:11:37;96432.72;;;15.93;nan
9261;BME280;4667;42.726;23.252;2022-12-31T10:14:23;96423.72;;;16.25;nan
9261;BME280;4667;42.726;23.252;2022-12-31T10:17:07;96411.94;;;16.35;nan
9261;BME280;4667;42.726;23.252;2022-12-31T10:22:56;96393.34;;;17.62;nan
9261;BME280;4667;42.726;23.252;2022-12-31T10:25:39;96404.03;;;17.42;nan
9261;BME280;4667;42.726;23.252;2022-12-31T10:28:24;96397.00;;;17.89;nan
9261;BME280;4667;42.726;23.252;2022-12-31T10:31:05;96396.38;;;18.15;nan
9261;BME280;4667;42.726;23.252;2022-12-31T10:33:42;96399.09;;;18.19;nan
9261;BME280;4667;42.726;23.252;2022-12-31T10:36:18;96402.03;;;18.72;nan
9261;BME280;4667;42.726;23.252;2022-12-31T10:38:55;96396.91;;;18.74;nan
9261;BME280;4667;42.726;23.252;2022-12-31T10:41:57;96399.66;;;18.74;nan
9261;BME280;4667;42.726;23.252;2022-12-31T10:44:58;96388.41;;;18.96;nan
9261;BME280;4667;42.726;23.252;2022-12-31T10:47:47;96394.44;;;18.84;nan
9261;BME280;4667;42.726;23.252;2022-12-31T10:50:49;96383.88;;;19.12;nan
9261;BME280;4667;42.726;23.252;2022-12-31T10:56:52;96381.25;;;19.02;nan
9261;BME280;4667;42.726;23.252;2022-12-31T11:00:00;96385.16;;;19.31;nan
9261;BME280;4667;42.726;23.252;2022-12-31T11:03:06;96390.06;;;19.43;nan
9261;BME280;4667;42.726;23.252;2022-12-31T11:11:52;96382.47;;;19.54;nan
9261;BME280;4667;42.726;23.252;2022-12-31T11:14:45;96368.59;;;19.85;nan
9261;BME280;4667;42.726;23.252;2022-12-31T11:17:37;96366.34;;;20.46;nan
9261;BME280;4667;42.726;23.252;2022-12-31T11:20:37;96363.63;;;20.62;nan
9261;BME280;4667;42.726;23.252;2022-12-31T11:23:19;96358.13;;;20.82;nan
9261;BME280;4667;42.726;23.252;2022-12-31T11:26:00;96353.56;;;20.92;nan
9261;BME280;4667;42.726;23.252;2022-12-31T11:31:39;96354.97;;;21.00;nan
9261;BME280;4667;42.726;23.252;2022-12-31T11:34:20;96347.34;;;21.07;nan
9261;BME280;4667;42.726;23.252;2022-12-31T11:37:04;96350.41;;;20.93;nan
9261;BME280;4667;42.726;23.252;2022-12-31T11:39:45;96346.91;;;21.61;nan
9261;BME280;4667;42.726;23.252;2022-12-31T11:42:19;96347.34;;;21.07;nan
9261;BME280;4667;42.726;23.252;2022-12-31T11:44:50;96337.81;;;20.92;nan
9261;BME280;4667;42.726;23.252;2022-12-31T11:47:50;96331.19;;;21.90;nan
9261;BME280;4667;42.726;23.252;2022-12-31T11:50:27;96334.66;;;21.62;nan
9261;BME280;4667;42.726;23.252;2022-12-31T11:53:03;96336.03;;;21.70;nan
9261;BME280;4667;42.726;23.252;2022-12-31T11:55:42;96327.91;;;21.63;nan
9261;BME280;4667;42.726;23.252;2022-12-31T11:58:14;96331.13;;;21.29;nan
9261;BME280;4667;42.726;23.252;2022-12-31T12:00:50;96334.81;;;21.71;nan
9261;BME280;4667;42.726;23.252;2022-12-31T12:03:20;96339.94;;;22.18;nan
9261;BME280;4667;42.726;23.252;2022-12-31T12:05:49;96340.94;;;22.53;nan
9261;BME280;4667;42.726;23.252;2022-12-31T12:08:16;96336.56;;;22.26;nan
9261;BME280;4667;42.726;23.252;2022-12-31T12:10:45;96344.03;;;21.97;nan
9261;BME280;4667;42.726;23.252;2022-12-31T12:13:19;96348.78;;;21.48;nan
9261;BME280;4667;42.726;23.252;2022-12-31T12:15:48;96338.47;;;22.13;nan
9261;BME280;4667;42.726;23.252;2022-12-31T12:18:25;96332.13;;;22.70;nan
9261;BME280;4667;42.726;23.252;2022-12-31T12:21:00;96332.69;;;22.65;nan
9261;BME280;4667;42.726;23.252;2022-12-31T12:23:28;96333.84;;;22.39;nan
9261;BME280;4667;42.726;23.252;2022-12-31T12:25:55;96334.19;;;22.95;nan
9261;BME280;4667;42.726;23.252;2022-12-31T12:28:24;96339.75;;;23.20;nan
9261;BME280;4667;42.726;23.252;2022-12-31T12:30:57;96339.19;;;23.13;nan
9261;BME280;4667;42.726;23.252;2022-12-31T12:33:25;96333.75;;;22.84;nan
9261;BME280;4667;42.726;23.252;2022-12-31T12:36:07;96335.66;;;22.29;nan
9261;BME280;4667;42.726;23.252;2022-12-31T12:38:35;96337.63;;;22.45;nan
9261;BME280;4667;42.726;23.252;2022-12-31T12:41:27;96337.31;;;22.56;nan
9261;BME280;4667;42.726;23.252;2022-12-31T12:44:02;96344.28;;;22.60;nan
9261;BME280;4667;42.726;23.252;2022-12-31T12:46:31;96333.00;;;22.96;nan
9261;BME280;4667;42.726;23.252;2022-12-31T12:48:58;96335.34;;;23.23;nan
9261;BME280;4667;42.726;23.252;2022-12-31T12:54:58;96344.06;;;23.22;nan
9261;BME280;4667;42.726;23.252;2022-12-31T12:57:39;96337.53;;;23.28;nan
9261;BME280;4667;42.726;23.252;2022-12-31T13:00:16;96341.84;;;23.04;nan
9261;BME280;4667;42.726;23.252;2022-12-31T13:03:19;96342.38;;;22.45;nan
9261;BME280;4667;42.726;23.252;2022-12-31T13:05:56;96341.03;;;22.78;nan
9261;BME280;4667;42.726;23.252;2022-12-31T13:08:40;96342.53;;;22.66;nan
9261;BME280;4667;42.726;23.252;2022-12-31T13:11:19;96349.34;;;22.49;nan
9261;BME280;4667;42.726;23.252;2022-12-31T13:13:58;96343.22;;;22.42;nan
9261;BME280;4667;42.726;23.252;2022-12-31T13:16:33;96341.03;;;22.49;nan
9261;BME280;4667;42.726;23.252;2022-12-31T13:19:13;96336.94;;;22.12;nan
9261;BME280;4667;42.726;23.252;2022-12-31T13:21:52;96348.84;;;22.38;nan
9261;BME280;4667;42.726;23.252;2022-12-31T13:24:39;96350.50;;;22.35;nan
9261;BME280;4667;42.726;23.252;2022-12-31T13:27:18;96354.97;;;22.58;nan
9261;BME280;4667;42.726;23.252;2022-12-31T13:29:48;96356.63;;;22.85;nan
9261;BME280;4667;42.726;23.252;2022-12-31T13:32:23;96356.97;;;22.87;nan
9261;BME280;4667;42.726;23.252;2022-12-31T13:34:57;96359.53;;;22.65;nan
9261;BME280;4667;42.726;23.252;2022-12-31T13:37:29;96354.19;;;22.45;nan
9261;BME280;4667;42.726;23.252;2022-12-31T13:40:01;96352.53;;;22.48;nan
9261;BME280;4667;42.726;23.252;2022-12-31T13:42:40;96346.91;;;22.51;nan
9261;BME280;4667;42.726;23.252;2022-12-31T13:45:12;96357.88;;;23.09;nan
9261;BME280;4667;42.726;23.252;2022-12-31T13:47:48;96366.28;;;23.31;nan
9261;BME280;4667;42.726;23.252;2022-12-31T13:50:27;96357.66;;;23.03;nan
9261;BME280;4667;42.726;23.252;2022-12-31T13:52:57;96361.84;;;22.66;nan
9261;BME280;4667;42.726;23.252;2022-12-31T13:55:29;96355.97;;;22.23;nan
9261;BME280;4667;42.726;23.252;2022-12-31T13:58:10;96366.38;;;21.54;nan
9261;BME280;4667;42.726;23.252;2022-12-31T14:00:44;96372.09;;;20.91;nan
9261;BME280;4667;42.726;23.252;2022-12-31T14:03:18;96376.47;;;20.29;nan
9261;BME280;4667;42.726;23.252;2022-12-31T14:05:54;96375.97;;;19.91;nan
9261;BME280;4667;42.726;23.252;2022-12-31T14:08:21;96366.59;;;19.39;nan
9261;BME280;4667;42.726;23.252;2022-12-31T14:10:58;96363.56;;;19.06;nan
9261;BME280;4667;42.726;23.252;2022-12-31T14:13:42;96374.25;;;18.70;nan
9261;BME280;4667;42.726;23.252;2022-12-31T14:16:23;96372.31;;;18.30;nan
9261;BME280;4667;42.726;23.252;2022-12-31T14:18:59;96371.16;;;17.90;nan
9261;BME280;4667;42.726;23.252;2022-12-31T14:21:35;96375.34;;;17.57;nan
9261;BME280;4667;42.726;23.252;2022-12-31T14:24:10;96369.28;;;17.32;nan
9261;BME280;4667;42.726;23.252;2022-12-31T14:26:39;96365.50;;;17.11;nan
9261;BME280;4667;42.726;23.252;2022-12-31T14:29:29;96372.69;;;16.88;nan
9261;BME280;4667;42.726;23.252;2022-12-31T14:32:11;96368.16;;;16.46;nan
9261;BME280;4667;42.726;23.252;2022-12-31T14:34:50;96369.81;;;16.18;nan
9261;BME280;4667;42.726;23.252;2022-12-31T14:37:29;96371.47;;;15.84;nan
9261;BME280;4667;42.726;23.252;2022-12-31T14:40:08;96373.03;;;15.57;nan
9261;BME280;4667;42.726;23.252;2022-12-31T14:42:45;96373.03;;;15.42;nan